Time;durP1;ratioP1;P1;durP2;ratioP2;P2;SDS_P1;SDS_P2;PMS_P1;PMS_P2;Temp;Humidity;BMP_temperature;BMP_pressure;BME280_temperature;BME280_humidity;BME280_pressure;Samples;Min_cycle;Max_cycle;Signal;HPM_P1;HPM_P2
2022/04/05 00:01:22;;;;;;;11.15;6.63;;;;;;;7.77;nan;94864.59;4983167;28;20208;-71
2022/04/05 00:03:49;;;;;;;8.73;6.10;;;;;;;7.83;nan;94862.75;4983744;28;20773;-73
2022/04/05 00:06:15;;;;;;;8.30;6.75;;;;;;;7.74;nan;94844.44;4982687;28;20311;-73
2022/04/05 00:08:43;;;;;;;10.63;6.90;;;;;;;7.92;nan;94858.31;4983080;28;20334;-70
2022/04/05 00:11:10;;;;;;;8.68;7.50;;;;;;;7.95;nan;94853.97;4984529;28;21425;-71
2022/04/05 00:13:39;;;;;;;14.10;6.50;;;;;;;7.97;nan;94867.44;4984343;28;20793;-71
2022/04/05 00:16:06;;;;;;;6.68;6.03;;;;;;;7.81;nan;94839.19;4983731;28;20235;-70
2022/04/05 00:18:33;;;;;;;9.05;5.85;;;;;;;7.81;nan;94858.59;4983029;28;20282;-72
2022/04/05 00:20:59;;;;;;;7.07;6.10;;;;;;;7.91;nan;94857.50;4982773;28;20221;-71
2022/04/05 00:23:26;;;;;;;7.05;5.78;;;;;;;7.69;nan;94856.38;4983357;28;20234;-72
2022/04/05 00:25:53;;;;;;;7.75;5.03;;;;;;;7.39;nan;94853.75;4984145;28;20209;-72
2022/04/05 00:28:20;;;;;;;5.28;4.88;;;;;;;7.47;nan;94858.59;4983220;28;20224;-70
2022/04/05 00:30:48;;;;;;;6.07;5.53;;;;;;;7.30;nan;94861.56;4981652;28;20272;-70
2022/04/05 00:33:15;;;;;;;9.55;5.70;;;;;;;7.32;nan;94856.47;4983536;28;20291;-70
2022/04/05 00:35:42;;;;;;;4.97;4.57;;;;;;;7.40;nan;94859.66;4982089;28;21009;-71
2022/04/05 00:38:09;;;;;;;5.40;4.00;;;;;;;7.31;nan;94855.63;4982694;28;20786;-70
2022/04/05 00:40:36;;;;;;;5.07;4.05;;;;;;;7.39;nan;94848.72;4982246;28;20303;-72
2022/04/05 00:43:05;;;;;;;5.03;4.25;;;;;;;7.68;nan;94847.13;4982363;28;20323;-71
2022/04/05 00:45:32;;;;;;;6.00;4.70;;;;;;;7.49;nan;94845.06;4983183;28;20212;-71
2022/04/05 00:48:02;;;;;;;5.60;5.10;;;;;;;7.60;nan;94833.84;4982261;28;20279;-70
2022/04/05 00:50:33;;;;;;;5.00;4.40;;;;;;;7.52;nan;94841.63;4982042;28;20678;-71
2022/04/05 00:53:03;;;;;;;7.03;5.07;;;;;;;7.46;nan;94837.53;4982623;28;20620;-71
2022/04/05 00:55:32;;;;;;;4.32;3.92;;;;;;;7.27;nan;94833.81;4981760;28;20212;-70
2022/04/05 00:58:02;;;;;;;5.10;4.70;;;;;;;7.35;nan;94831.94;4984067;28;20583;-70
2022/04/05 01:00:30;;;;;;;5.03;4.63;;;;;;;7.54;nan;94826.41;4981976;28;20212;-71
2022/04/05 01:03:00;;;;;;;4.82;3.80;;;;;;;7.51;nan;94825.63;4983237;28;20254;-70
2022/04/05 01:05:28;;;;;;;4.95;3.95;;;;;;;7.55;nan;94828.09;4981631;28;21809;-71
2022/04/05 01:08:02;;;;;;;4.60;4.15;;;;;;;7.35;nan;94821.84;4982354;28;20232;-71
2022/04/05 01:10:29;;;;;;;5.25;4.18;;;;;;;7.33;nan;94828.63;4983009;28;20219;-71
2022/04/05 01:12:56;;;;;;;5.40;4.43;;;;;;;7.04;nan;94821.75;4982715;28;20244;-70
2022/04/05 01:15:23;;;;;;;4.97;4.40;;;;;;;7.24;nan;94817.91;4981701;28;20255;-70
2022/04/05 01:17:50;;;;;;;4.22;3.92;;;;;;;7.09;nan;94817.41;4981868;28;20201;-70
2022/04/05 01:20:16;;;;;;;4.35;4.05;;;;;;;7.23;nan;94816.25;4983204;28;20243;-71
2022/04/05 01:22:49;;;;;;;4.97;4.53;;;;;;;7.52;nan;94818.88;4982702;28;20683;-71
2022/04/05 01:25:18;;;;;;;5.30;4.80;;;;;;;7.47;nan;94813.94;4980816;28;20263;-70
2022/04/05 01:27:45;;;;;;;4.30;3.90;;;;;;;7.46;nan;94813.97;4982974;28;20196;-71
2022/04/05 01:30:13;;;;;;;6.10;4.25;;;;;;;7.33;nan;94798.28;4982295;28;20192;-70
2022/04/05 01:32:40;;;;;;;6.03;4.22;;;;;;;7.42;nan;94813.22;4982831;28;20212;-71
2022/04/05 01:35:07;;;;;;;4.15;3.75;;;;;;;7.35;nan;94818.47;4980845;28;20318;-71
2022/04/05 01:37:34;;;;;;;4.38;4.07;;;;;;;7.18;nan;94819.69;4983107;28;20196;-72
2022/04/05 01:40:01;;;;;;;4.90;3.85;;;;;;;6.88;nan;94819.63;4981101;28;20232;-71
2022/04/05 01:42:30;;;;;;;4.75;4.35;;;;;;;6.92;nan;94814.47;4981691;28;20197;-72
2022/04/05 01:44:57;;;;;;;7.55;3.90;;;;;;;7.06;nan;94814.13;4983061;28;20213;-71
2022/04/05 01:47:23;;;;;;;4.85;4.45;;;;;;;6.98;nan;94816.00;4982940;28;20200;-71
2022/04/05 01:49:50;;;;;;;4.82;4.40;;;;;;;7.00;nan;94816.78;4982028;28;20632;-71
2022/04/05 01:52:18;;;;;;;5.00;4.55;;;;;;;7.13;nan;94810.59;4980865;28;20244;-71
2022/04/05 01:54:45;;;;;;;5.10;4.13;;;;;;;6.99;nan;94817.66;4980788;28;20205;-71
2022/04/05 01:57:13;;;;;;;6.88;5.25;;;;;;;6.83;nan;94818.03;4980860;28;20232;-71
2022/04/05 01:59:41;;;;;;;5.53;4.57;;;;;;;6.88;nan;94804.47;4982428;28;20232;-71
2022/04/05 02:02:10;;;;;;;8.98;4.78;;;;;;;7.28;nan;94812.75;4982260;28;20208;-71
2022/04/05 02:04:38;;;;;;;6.82;4.68;;;;;;;7.40;nan;94811.63;4980599;28;20705;-71
2022/04/05 02:07:10;;;;;;;9.23;5.13;;;;;;;7.33;nan;94805.03;4980202;28;20233;-71
2022/04/05 02:09:37;;;;;;;9.93;5.22;;;;;;;7.27;nan;94803.50;4980143;28;20205;-71
2022/04/05 02:12:05;;;;;;;5.95;5.45;;;;;;;7.40;nan;94794.75;4981293;28;20264;-71
2022/04/05 02:14:31;;;;;;;6.85;5.10;;;;;;;7.23;nan;94799.38;4980931;28;20333;-73
2022/04/05 02:16:59;;;;;;;6.53;5.00;;;;;;;7.25;nan;94799.34;4981528;28;20311;-71
2022/04/05 02:19:26;;;;;;;6.07;5.50;;;;;;;7.59;nan;94796.78;4979788;28;20302;-71
2022/04/05 02:21:53;;;;;;;7.60;6.05;;;;;;;7.82;nan;94792.78;4981258;28;20214;-71
2022/04/05 02:24:20;;;;;;;7.78;6.05;;;;;;;7.79;nan;94792.03;4982194;28;20200;-71
2022/04/05 02:26:47;;;;;;;6.65;5.35;;;;;;;7.53;nan;94789.38;4980910;28;20204;-73
2022/04/05 02:29:14;;;;;;;8.32;5.35;;;;;;;7.41;nan;94790.53;4981987;28;20204;-71
2022/04/05 02:31:41;;;;;;;6.63;6.03;;;;;;;7.26;nan;94786.66;4981319;28;20215;-73
2022/04/05 02:34:09;;;;;;;7.03;5.82;;;;;;;6.67;nan;94775.50;4980485;28;20282;-71
2022/04/05 02:36:36;;;;;;;7.78;6.97;;;;;;;6.72;nan;94778.72;4980522;28;20205;-71
2022/04/05 02:39:03;;;;;;;8.65;7.35;;;;;;;6.72;nan;94774.50;4978988;28;20715;-71
2022/04/05 02:41:30;;;;;;;13.70;7.88;;;;;;;6.63;nan;94768.84;4980028;28;20268;-72
2022/04/05 02:43:58;;;;;;;7.57;6.88;;;;;;;6.53;nan;94767.38;4981216;28;20692;-72
2022/04/05 02:46:25;;;;;;;9.13;6.60;;;;;;;6.54;nan;94767.34;4981639;28;20377;-70
2022/04/05 02:48:54;;;;;;;9.10;7.03;;;;;;;6.72;nan;94764.41;4979824;28;20201;-72
2022/04/05 02:51:24;;;;;;;10.68;6.90;;;;;;;6.89;nan;94770.75;4980538;28;20296;-71
2022/04/05 02:53:50;;;;;;;7.10;6.38;;;;;;;7.08;nan;94766.91;4979229;28;20260;-70
2022/04/05 02:56:17;;;;;;;7.88;6.43;;;;;;;6.93;nan;94757.19;4979393;28;20323;-71
2022/04/05 02:58:47;;;;;;;8.45;6.90;;;;;;;7.09;nan;94773.63;4980918;28;20397;-71
2022/04/05 03:01:15;;;;;;;9.05;6.85;;;;;;;7.24;nan;94768.19;4979901;28;20208;-71
2022/04/05 03:03:42;;;;;;;7.75;7.05;;;;;;;7.21;nan;94775.00;4981455;28;20216;-71
2022/04/05 03:06:10;;;;;;;9.57;7.50;;;;;;;6.82;nan;94775.97;4980517;28;20211;-72
2022/04/05 03:08:39;;;;;;;9.88;7.50;;;;;;;6.96;nan;94765.50;4980212;28;20667;-71
2022/04/05 03:11:05;;;;;;;11.68;7.07;;;;;;;6.70;nan;94766.13;4981535;28;20876;-71
2022/04/05 03:13:32;;;;;;;13.75;8.68;;;;;;;6.82;nan;94778.47;4980675;28;20689;-71
2022/04/05 03:15:59;;;;;;;21.88;8.93;;;;;;;6.34;nan;94769.50;4980895;28;20255;-71
2022/04/05 03:18:26;;;;;;;15.80;10.90;;;;;;;6.26;nan;94771.34;4980857;28;20355;-71
2022/04/05 03:20:53;;;;;;;14.25;10.98;;;;;;;6.45;nan;94770.06;4979911;28;20903;-71
2022/04/05 03:23:21;;;;;;;16.40;10.90;;;;;;;6.48;nan;94770.00;4979554;28;20295;-73
2022/04/05 03:25:50;;;;;;;11.85;9.15;;;;;;;6.58;nan;94766.44;4986448;28;20224;-71
2022/04/05 03:28:18;;;;;;;11.13;7.70;;;;;;;6.19;nan;94768.13;4983074;28;20204;-71
2022/04/05 03:30:47;;;;;;;8.75;6.53;;;;;;;5.91;nan;94762.84;4978496;28;20266;-71
2022/04/05 03:33:14;;;;;;;10.85;7.70;;;;;;;5.97;nan;94756.81;4981690;28;20197;-72
2022/04/05 03:35:40;;;;;;;7.47;6.70;;;;;;;5.79;nan;94765.56;4981037;28;20794;-71
2022/04/05 03:38:07;;;;;;;9.10;6.57;;;;;;;6.11;nan;94765.78;4980539;28;20367;-70
2022/04/05 03:40:34;;;;;;;9.80;6.38;;;;;;;5.87;nan;94741.03;4980642;28;20773;-70
2022/04/05 03:43:02;;;;;;;8.25;6.75;;;;;;;5.89;nan;94763.75;4980577;28;20310;-71
2022/04/05 03:45:29;;;;;;;58.00;31.80;;;;;;;5.78;nan;94723.56;4980319;28;20209;-70
2022/04/05 03:47:55;;;;;;;30.42;17.55;;;;;;;5.86;nan;94759.56;4981413;28;20200;-70
2022/04/05 03:50:22;;;;;;;17.05;9.68;;;;;;;6.00;nan;94765.16;4980209;28;20229;-71
2022/04/05 03:52:49;;;;;;;27.40;13.75;;;;;;;5.87;nan;94763.72;4981869;28;20204;-70
2022/04/05 03:55:16;;;;;;;10.07;7.85;;;;;;;5.82;nan;94757.94;4980106;28;20209;-70
2022/04/05 03:57:42;;;;;;;12.85;9.23;;;;;;;6.08;nan;94755.75;4980563;28;20212;-70
2022/04/05 04:00:12;;;;;;;10.77;7.73;;;;;;;6.26;nan;94761.25;4979404;28;20718;-71
2022/04/05 04:02:39;;;;;;;13.93;7.68;;;;;;;6.41;nan;94758.41;4980016;28;20201;-71
2022/04/05 04:05:07;;;;;;;10.82;6.50;;;;;;;6.35;nan;94758.53;4980593;28;20209;-73
2022/04/05 04:07:38;;;;;;;8.57;7.20;;;;;;;5.96;nan;94750.94;4981470;28;20205;-71
2022/04/05 04:10:06;;;;;;;17.70;8.85;;;;;;;5.96;nan;94743.38;4980773;28;20290;-72
2022/04/05 04:12:32;;;;;;;21.80;9.00;;;;;;;5.94;nan;94762.75;4980823;28;20239;-72
2022/04/05 04:14:59;;;;;;;14.95;8.10;;;;;;;5.71;nan;94768.22;4980316;28;20201;-71
2022/04/05 04:17:28;;;;;;;13.38;7.32;;;;;;;5.55;nan;94768.56;4982157;28;20258;-71
2022/04/05 04:19:55;;;;;;;16.40;9.52;;;;;;;5.82;nan;94768.88;4981774;28;21479;-71
2022/04/05 04:22:22;;;;;;;19.65;8.90;;;;;;;6.21;nan;94778.19;4983650;28;20204;-71
2022/04/05 04:24:49;;;;;;;10.10;7.47;;;;;;;6.46;nan;94781.84;4982723;28;20251;-71
2022/04/05 04:27:16;;;;;;;12.50;9.13;;;;;;;6.46;nan;94776.78;4984280;28;20200;-72
2022/04/05 04:29:42;;;;;;;18.40;7.80;;;;;;;5.96;nan;94785.44;4984155;28;20283;-73
2022/04/05 04:32:09;;;;;;;27.27;13.60;;;;;;;5.90;nan;94780.53;4984954;28;20257;-71
2022/04/05 04:34:37;;;;;;;24.55;12.57;;;;;;;6.00;nan;94782.81;4983834;28;20348;-74
2022/04/05 04:37:05;;;;;;;17.42;10.95;;;;;;;6.01;nan;94784.47;4985020;28;20208;-73
2022/04/05 04:39:31;;;;;;;17.15;10.57;;;;;;;6.03;nan;94776.88;4983749;28;20271;-74
2022/04/05 04:41:59;;;;;;;16.40;9.25;;;;;;;5.74;nan;94760.63;4983896;28;20213;-73
2022/04/05 04:44:26;;;;;;;12.95;10.85;;;;;;;6.05;nan;94783.56;4984190;28;20753;-71
2022/04/05 04:46:53;;;;;;;19.23;9.80;;;;;;;6.30;nan;94775.47;4985029;28;20668;-72
2022/04/05 04:49:19;;;;;;;15.55;9.88;;;;;;;6.28;nan;94782.25;4984782;28;20208;-72
2022/04/05 04:51:48;;;;;;;32.92;9.80;;;;;;;6.09;nan;94775.06;4983898;28;20231;-72
2022/04/05 04:54:14;;;;;;;12.57;9.07;;;;;;;6.08;nan;94758.28;4981752;28;20232;-72
2022/04/05 04:56:41;;;;;;;22.15;8.52;;;;;;;6.35;nan;94783.78;4983093;28;20290;-71
2022/04/05 04:59:08;;;;;;;14.50;9.15;;;;;;;6.49;nan;94786.81;4983166;28;20210;-71
2022/04/05 05:01:34;;;;;;;14.57;8.75;;;;;;;6.27;nan;94767.97;4980983;28;20228;-73
2022/04/05 05:04:01;;;;;;;15.80;9.13;;;;;;;6.00;nan;94782.81;4983050;28;20204;-73
2022/04/05 05:06:28;;;;;;;11.05;8.73;;;;;;;5.78;nan;94784.91;4983350;28;20196;-72
2022/04/05 05:08:57;;;;;;;15.80;8.98;;;;;;;5.70;nan;94779.19;4966970;28;20638;-71
2022/04/05 05:11:24;;;;;;;15.57;9.07;;;;;;;5.82;nan;94790.72;4982982;28;20298;-71
2022/04/05 05:13:50;;;;;;;12.73;9.52;;;;;;;6.23;nan;94789.06;4983316;28;20229;-71
2022/04/05 05:16:17;;;;;;;11.70;7.90;;;;;;;6.82;nan;94783.53;4984549;28;20274;-72
2022/04/05 05:18:44;;;;;;;19.67;8.00;;;;;;;7.04;nan;94785.53;4982243;28;20263;-72
2022/04/05 05:21:11;;;;;;;9.50;7.93;;;;;;;7.49;nan;94789.44;4982399;28;20276;-72
2022/04/05 05:23:38;;;;;;;14.15;8.63;;;;;;;7.96;nan;94769.63;4982518;28;20214;-72
2022/04/05 05:26:06;;;;;;;14.93;8.82;;;;;;;9.28;nan;94791.81;4981673;28;20945;-72
2022/04/05 05:28:33;;;;;;;22.45;9.18;;;;;;;11.14;nan;94790.91;4981091;28;20263;-70
2022/04/05 05:30:59;;;;;;;19.08;9.75;;;;;;;13.19;nan;94778.50;4982298;28;21547;-71
2022/04/05 05:33:26;;;;;;;25.10;9.60;;;;;;;15.24;nan;94782.28;4980988;28;20251;-72
2022/04/05 05:35:53;;;;;;;13.52;9.68;;;;;;;16.23;nan;94787.59;4983547;28;20204;-72
2022/04/05 05:38:20;;;;;;;18.80;9.27;;;;;;;18.51;nan;94789.19;4982318;28;20949;-71
2022/04/05 05:40:47;;;;;;;15.35;9.35;;;;;;;19.80;nan;94777.34;4982892;28;20243;-71
2022/04/05 05:43:15;;;;;;;14.07;10.38;;;;;;;19.02;nan;94777.84;4982355;28;20204;-72
2022/04/05 05:45:42;;;;;;;24.48;12.65;;;;;;;20.07;nan;94784.78;4981702;28;20236;-72
2022/04/05 05:48:09;;;;;;;16.50;12.98;;;;;;;21.41;nan;94776.09;4982664;28;20896;-72
2022/04/05 05:50:37;;;;;;;16.95;11.38;;;;;;;22.20;nan;94770.41;4981453;28;20271;-71
2022/04/05 05:53:04;;;;;;;19.92;11.95;;;;;;;21.99;nan;94779.94;4981381;28;20204;-71
2022/04/05 05:55:31;;;;;;;23.27;12.77;;;;;;;21.32;nan;94772.50;4984009;28;20215;-72
2022/04/05 05:57:59;;;;;;;14.27;12.07;;;;;;;20.69;nan;94774.03;4983083;28;20200;-71
2022/04/05 06:00:27;;;;;;;21.65;11.52;;;;;;;20.85;nan;94769.31;4982298;28;20308;-72
2022/04/05 06:02:56;;;;;;;18.88;11.30;;;;;;;22.95;nan;94756.25;4979851;28;20324;-71
2022/04/05 06:05:23;;;;;;;18.92;12.52;;;;;;;24.55;nan;94757.34;4983227;28;20219;-71
2022/04/05 06:07:50;;;;;;;20.35;11.63;;;;;;;25.89;nan;94747.84;4984028;28;20205;-73
2022/04/05 06:10:18;;;;;;;19.65;11.32;;;;;;;26.18;nan;94771.00;4982498;28;20295;-71
2022/04/05 06:12:48;;;;;;;21.27;10.63;;;;;;;27.70;nan;94762.31;4983920;28;20723;-72
2022/04/05 06:15:16;;;;;;;14.32;11.32;;;;;;;27.02;nan;94759.84;4981927;28;20299;-71
2022/04/05 06:17:46;;;;;;;13.68;9.63;;;;;;;26.86;nan;94758.00;4981685;28;20212;-72
2022/04/05 06:20:16;;;;;;;14.90;10.60;;;;;;;25.66;nan;94763.13;4982862;28;20260;-71
2022/04/05 06:22:44;;;;;;;10.95;9.65;;;;;;;27.32;nan;94753.25;4983323;28;20301;-72
2022/04/05 06:25:12;;;;;;;10.35;9.15;;;;;;;25.34;nan;94763.63;4983019;28;20208;-72
2022/04/05 06:27:40;;;;;;;10.32;9.18;;;;;;;23.60;nan;94765.19;4981678;28;20722;-72
2022/04/05 06:30:09;;;;;;;14.45;10.25;;;;;;;23.16;nan;94759.56;4981833;28;20232;-72
2022/04/05 06:32:36;;;;;;;30.05;16.60;;;;;;;22.53;nan;94771.09;4983097;28;20219;-71
2022/04/05 06:35:07;;;;;;;25.67;17.92;;;;;;;23.37;nan;94751.66;4980751;28;21687;-72
2022/04/05 06:37:35;;;;;;;14.23;11.48;;;;;;;22.84;nan;94749.41;4980809;28;20212;-71
2022/04/05 06:40:03;;;;;;;11.80;10.40;;;;;;;23.67;nan;94751.53;4982504;28;20200;-72
2022/04/05 06:42:30;;;;;;;14.85;9.40;;;;;;;22.87;nan;94728.41;4981353;28;20257;-71
2022/04/05 06:44:57;;;;;;;12.02;9.75;;;;;;;23.59;nan;94751.41;4983242;28;20208;-72
2022/04/05 06:47:24;;;;;;;15.30;10.23;;;;;;;24.17;nan;94746.13;4981010;28;20635;-72
2022/04/05 06:49:51;;;;;;;16.35;10.05;;;;;;;22.93;nan;94753.78;4981317;28;20655;-71
2022/04/05 06:52:19;;;;;;;15.45;11.48;;;;;;;20.51;nan;94750.47;4981573;28;20700;-71
2022/04/05 06:54:46;;;;;;;11.05;9.82;;;;;;;22.68;nan;94743.88;4981224;28;20204;-71
2022/04/05 06:57:12;;;;;;;16.63;9.88;;;;;;;23.13;nan;94744.28;4982117;28;20687;-71
2022/04/05 06:59:39;;;;;;;15.43;9.70;;;;;;;22.47;nan;94745.72;4981360;28;20200;-72
2022/04/05 07:02:06;;;;;;;15.45;9.05;;;;;;;24.13;nan;94744.75;4981685;28;20270;-70
2022/04/05 07:04:33;;;;;;;14.38;9.25;;;;;;;25.82;nan;94738.19;4981312;28;20204;-71
2022/04/05 07:06:59;;;;;;;13.63;9.88;;;;;;;24.95;nan;94744.88;4983083;28;20228;-71
2022/04/05 07:09:27;;;;;;;11.63;9.27;;;;;;;25.58;nan;94718.78;4980937;28;20349;-71
2022/04/05 07:11:54;;;;;;;11.27;8.57;;;;;;;24.75;nan;94727.69;4984139;28;20287;-72
2022/04/05 07:14:21;;;;;;;8.70;7.85;;;;;;;24.27;nan;94744.31;5002718;28;20231;-72
2022/04/05 07:16:48;;;;;;;11.88;8.80;;;;;;;24.98;nan;94744.59;5001587;28;20608;-71
2022/04/05 07:19:14;;;;;;;12.23;8.48;;;;;;;27.33;nan;94734.00;5001646;28;20679;-72
2022/04/05 07:21:41;;;;;;;16.58;8.52;;;;;;;27.56;nan;94729.78;5000711;28;20707;-70
2022/04/05 07:24:08;;;;;;;12.23;7.85;;;;;;;24.84;nan;94739.81;5001043;28;20208;-71
2022/04/05 07:26:37;;;;;;;7.22;6.43;;;;;;;25.92;nan;94731.94;4984248;28;20208;-71
2022/04/05 07:29:03;;;;;;;8.07;6.68;;;;;;;25.71;nan;94736.66;5000939;28;20265;-71
2022/04/05 07:31:30;;;;;;;7.05;6.45;;;;;;;24.75;nan;94738.09;5002125;28;20664;-71
2022/04/05 07:33:57;;;;;;;6.68;6.18;;;;;;;24.36;nan;94733.09;5001808;28;20792;-71
2022/04/05 07:36:24;;;;;;;13.00;7.00;;;;;;;25.01;nan;94726.06;5002305;28;20208;-71
2022/04/05 07:38:52;;;;;;;11.02;8.25;;;;;;;25.56;nan;94738.94;5001458;28;20212;-71
2022/04/05 07:41:19;;;;;;;8.90;8.10;;;;;;;24.84;nan;94744.22;5002805;28;20231;-73
2022/04/05 07:43:48;;;;;;;9.88;7.10;;;;;;;23.93;nan;94736.22;5001888;28;20293;-71
2022/04/05 07:46:15;;;;;;;6.72;6.22;;;;;;;25.24;nan;94736.84;5002294;28;20199;-72
2022/04/05 07:48:42;;;;;;;7.93;6.68;;;;;;;25.15;nan;94729.94;5002191;28;20265;-71
2022/04/05 07:51:10;;;;;;;8.35;7.22;;;;;;;22.97;nan;94731.84;5001953;28;20281;-70
2022/04/05 07:53:37;;;;;;;7.47;6.88;;;;;;;23.01;nan;94725.41;5001163;28;20204;-73
2022/04/05 07:56:04;;;;;;;9.63;6.35;;;;;;;23.39;nan;94734.19;5004131;28;20203;-71
2022/04/05 07:58:31;;;;;;;7.50;5.78;;;;;;;23.08;nan;94730.88;5006298;28;20204;-71
2022/04/05 08:00:59;;;;;;;6.90;5.95;;;;;;;23.41;nan;94732.28;5005143;28;21619;-72
2022/04/05 08:03:27;;;;;;;15.07;10.68;;;;;;;22.36;nan;94729.34;5004074;28;20208;-72
2022/04/05 08:05:54;;;;;;;6.45;5.93;;;;;;;21.25;nan;94730.84;5005532;28;20204;-73
2022/04/05 08:08:21;;;;;;;9.32;6.75;;;;;;;21.39;nan;94727.94;5005421;28;20217;-73
2022/04/05 08:10:48;;;;;;;11.73;6.18;;;;;;;20.89;nan;94737.13;5006212;28;20204;-73
2022/04/05 08:13:15;;;;;;;6.28;5.35;;;;;;;19.76;nan;94736.44;5004818;28;20667;-72
2022/04/05 08:15:43;;;;;;;5.82;5.30;;;;;;;18.94;nan;94732.97;4988101;28;20200;-72
2022/04/05 08:18:11;;;;;;;6.50;5.88;;;;;;;18.71;nan;94726.88;5004447;28;20214;-71
2022/04/05 08:20:41;;;;;;;7.57;6.85;;;;;;;18.50;nan;94720.66;5004856;28;20204;-70
2022/04/05 08:23:08;;;;;;;7.10;6.50;;;;;;;18.00;nan;94730.91;5004789;28;20199;-70
2022/04/05 08:25:36;;;;;;;6.53;5.90;;;;;;;17.25;nan;94729.91;4986373;28;20200;-71
2022/04/05 08:28:03;;;;;;;7.00;6.30;;;;;;;17.10;nan;94727.47;5004521;28;20204;-71
2022/04/05 08:30:30;;;;;;;11.15;6.78;;;;;;;16.79;nan;94723.50;5004580;28;20203;-71
2022/04/05 08:32:57;;;;;;;8.23;7.43;;;;;;;16.59;nan;94706.75;5004805;28;20200;-72
2022/04/05 08:35:26;;;;;;;8.32;6.93;;;;;;;16.96;nan;94705.28;5003642;28;20204;-71
2022/04/05 08:37:55;;;;;;;7.85;6.22;;;;;;;17.38;nan;94683.69;5004817;28;20613;-72
2022/04/05 08:40:24;;;;;;;8.40;6.30;;;;;;;17.52;nan;94711.88;5004107;28;20211;-71
2022/04/05 08:42:53;;;;;;;12.60;6.97;;;;;;;17.15;nan;94704.91;5002963;28;20229;-72
2022/04/05 08:45:21;;;;;;;7.47;6.80;;;;;;;16.77;nan;94708.19;5004187;28;20389;-72
2022/04/05 08:47:51;;;;;;;6.85;6.25;;;;;;;17.16;nan;94701.41;5005631;28;20199;-72
2022/04/05 08:50:20;;;;;;;7.80;7.00;;;;;;;16.99;nan;94690.50;5003677;28;20204;-71
2022/04/05 08:52:49;;;;;;;8.90;7.15;;;;;;;16.64;nan;94694.47;5002697;28;20532;-71
2022/04/05 08:55:18;;;;;;;10.07;6.97;;;;;;;16.25;nan;94690.91;5003461;28;20733;-73
2022/04/05 08:57:44;;;;;;;7.07;6.40;;;;;;;16.39;nan;94684.91;5003544;28;20721;-72
2022/04/05 09:00:15;;;;;;;10.35;6.32;;;;;;;16.55;nan;94683.03;5002353;28;20909;-72
2022/04/05 09:02:56;;;;;;;8.77;6.90;;;;;;;16.49;nan;94674.91;5001536;28;20739;-73
2022/04/05 09:05:28;;;;;;;8.02;6.30;;;;;;;16.46;nan;94680.22;5000611;28;20192;-72
2022/04/05 09:08:12;;;;;;;9.30;7.00;;;;;;;16.37;nan;94680.78;5003565;28;20208;-72
2022/04/05 09:10:39;;;;;;;8.07;6.50;;;;;;;16.16;nan;94678.63;5002733;28;21495;-72
2022/04/05 09:13:10;;;;;;;6.60;6.00;;;;;;;16.10;nan;94673.03;5002019;28;20238;-73
2022/04/05 09:15:38;;;;;;;8.55;6.18;;;;;;;16.21;nan;94670.66;5003204;28;20207;-72
2022/04/05 09:18:06;;;;;;;6.72;4.35;;;;;;;15.69;nan;94673.81;5003617;28;20687;-72
2022/04/05 09:20:45;;;;;;;6.88;5.18;;;;;;;15.73;nan;94666.78;5002176;28;20746;-72
2022/04/05 09:23:25;;;;;;;6.75;5.20;;;;;;;15.84;nan;94661.81;5002617;28;20207;-71
2022/04/05 09:25:57;;;;;;;7.20;5.07;;;;;;;15.73;nan;94669.34;5002964;28;20237;-72
2022/04/05 09:28:32;;;;;;;4.47;4.18;;;;;;;15.97;nan;94660.16;5002464;28;20204;-73
2022/04/05 09:31:01;;;;;;;8.52;5.15;;;;;;;15.75;nan;94658.09;5002070;28;20667;-73
2022/04/05 09:33:30;;;;;;;4.80;4.20;;;;;;;15.74;nan;94640.25;4993966;28;20829;-72
2022/04/05 09:36:18;;;;;;;4.63;4.32;;;;;;;15.66;nan;94658.63;5000132;28;20206;-72
2022/04/05 09:38:50;;;;;;;4.47;4.10;;;;;;;15.55;nan;94656.69;4994194;28;20243;-73
2022/04/05 09:41:21;;;;;;;10.48;6.10;;;;;;;15.66;nan;94648.38;5000241;28;20749;-73
2022/04/05 09:43:58;;;;;;;6.07;4.97;;;;;;;15.78;nan;94641.72;4999787;28;20209;-74
2022/04/05 09:46:28;;;;;;;9.07;5.88;;;;;;;16.06;nan;94631.44;5001112;28;20697;-75
2022/04/05 09:49:07;;;;;;;10.88;7.40;;;;;;;16.27;nan;94635.22;5000418;28;20204;-78
2022/04/05 09:51:43;;;;;;;7.53;5.85;;;;;;;15.98;nan;94623.38;5001028;28;20269;-74
2022/04/05 09:54:22;;;;;;;6.28;5.25;;;;;;;15.85;nan;94637.84;5021304;28;20203;-73
2022/04/05 09:56:49;;;;;;;6.97;5.32;;;;;;;16.05;nan;94628.97;5024444;28;20651;-73
2022/04/05 09:59:18;;;;;;;4.38;3.97;;;;;;;15.93;nan;94604.91;5022774;28;20711;-72
2022/04/05 10:01:47;;;;;;;5.80;4.43;;;;;;;16.32;nan;94612.69;5005036;28;21009;-72
2022/04/05 10:04:16;;;;;;;4.70;4.30;;;;;;;16.08;nan;94624.47;5006441;28;20254;-72
2022/04/05 10:06:46;;;;;;;4.07;3.80;;;;;;;15.96;nan;94614.97;5006143;28;20201;-72
2022/04/05 10:09:16;;;;;;;4.65;4.25;;;;;;;15.99;nan;94619.91;5006924;28;20205;-72
2022/04/05 10:11:44;;;;;;;5.93;4.47;;;;;;;16.13;nan;94612.16;5005673;28;20200;-72
2022/04/05 10:14:13;;;;;;;4.65;4.25;;;;;;;15.98;nan;94611.38;5007416;28;20200;-72
2022/04/05 10:16:40;;;;;;;7.75;4.95;;;;;;;16.01;nan;94607.81;5007226;28;20232;-73
2022/04/05 10:19:09;;;;;;;6.30;4.47;;;;;;;16.06;nan;94607.53;5007862;28;20283;-71
2022/04/05 10:21:38;;;;;;;17.88;10.23;;;;;;;16.05;nan;94600.75;5028466;28;20249;-71
2022/04/05 10:24:07;;;;;;;10.38;6.20;;;;;;;15.92;nan;94603.25;5027241;28;20222;-72
2022/04/05 10:26:37;;;;;;;5.90;5.40;;;;;;;15.84;nan;94600.31;5009114;28;20193;-71
2022/04/05 10:29:06;;;;;;;6.47;5.53;;;;;;;15.96;nan;94591.91;5009728;28;20197;-71
2022/04/05 10:31:44;;;;;;;7.45;5.80;;;;;;;15.73;nan;94587.38;5028536;28;20199;-71
2022/04/05 10:34:21;;;;;;;7.47;5.70;;;;;;;15.89;nan;94593.19;5026709;28;20231;-70
2022/04/05 10:37:12;;;;;;;5.55;5.13;;;;;;;15.88;nan;94579.53;5011133;28;20192;-72
2022/04/05 10:39:39;;;;;;;5.72;5.20;;;;;;;15.93;nan;94576.69;5011184;28;20209;-71
2022/04/05 10:42:24;;;;;;;6.88;5.95;;;;;;;15.75;nan;94580.41;5010579;28;20236;-71
2022/04/05 10:45:09;;;;;;;8.70;5.82;;;;;;;15.77;nan;94553.78;5011067;28;20695;-70
2022/04/05 10:47:57;;;;;;;7.20;6.00;;;;;;;16.01;nan;94569.38;5010934;28;20192;-70
2022/04/05 10:50:24;;;;;;;5.32;4.82;;;;;;;16.29;nan;94565.91;5010927;28;20983;-72
2022/04/05 10:53:12;;;;;;;5.35;4.80;;;;;;;16.50;nan;94553.44;5011004;28;20197;-71
2022/04/05 10:56:14;;;;;;;6.95;3.92;;;;;;;16.70;nan;94554.72;5024872;28;20204;-72
2022/04/05 10:59:01;;;;;;;5.65;4.55;;;;;;;16.71;nan;94546.94;5030522;28;20191;-72
2022/04/05 11:01:39;;;;;;;5.60;5.18;;;;;;;16.88;nan;94523.53;5010901;28;20192;-70
2022/04/05 11:04:42;;;;;;;5.32;4.80;;;;;;;17.09;nan;94541.81;5011811;28;20196;-70
2022/04/05 11:07:13;;;;;;;4.95;4.55;;;;;;;16.97;nan;94533.19;5029198;28;20666;-71
2022/04/05 11:09:50;;;;;;;6.60;5.88;;;;;;;17.07;nan;94528.28;5030436;28;20196;-71
2022/04/05 11:12:23;;;;;;;9.38;7.93;;;;;;;17.15;nan;94535.44;5028851;28;20293;-70
2022/04/05 11:14:57;;;;;;;7.45;6.85;;;;;;;16.91;nan;94523.34;5030266;28;20202;-72
2022/04/05 11:17:25;;;;;;;7.03;6.13;;;;;;;17.03;nan;94531.16;5028778;28;20215;-72
2022/04/05 11:19:55;;;;;;;6.07;5.35;;;;;;;17.16;nan;94526.81;5029964;28;20200;-71
2022/04/05 11:22:36;;;;;;;6.93;5.25;;;;;;;16.87;nan;94527.03;5013371;28;20235;-71
2022/04/05 11:25:06;;;;;;;6.43;5.22;;;;;;;16.55;nan;94518.06;5010321;28;20199;-70
2022/04/05 11:27:38;;;;;;;5.63;4.30;;;;;;;16.44;nan;94511.03;5010885;28;20332;-71
2022/04/05 11:30:44;;;;;;;6.80;4.38;;;;;;;15.98;nan;94516.56;5011776;28;20228;-70
2022/04/05 11:33:23;;;;;;;4.82;4.43;;;;;;;15.99;nan;94502.84;5014322;28;20638;-70
2022/04/05 11:35:52;;;;;;;4.45;4.15;;;;;;;16.52;nan;94500.28;5013718;28;20204;-71
2022/04/05 11:38:30;;;;;;;6.55;5.07;;;;;;;16.38;nan;94490.09;5014241;28;20195;-71
2022/04/05 11:41:00;;;;;;;5.03;4.65;;;;;;;16.52;nan;94479.78;5014771;28;20200;-71
2022/04/05 11:43:30;;;;;;;4.40;4.00;;;;;;;16.93;nan;94488.13;5014230;28;20247;-71
2022/04/05 11:46:00;;;;;;;4.00;3.75;;;;;;;17.14;nan;94488.41;5014602;28;20215;-71
2022/04/05 11:48:28;;;;;;;5.40;4.45;;;;;;;17.15;nan;94486.66;5013813;28;20622;-71
2022/04/05 11:50:56;;;;;;;3.78;3.05;;;;;;;17.46;nan;94477.69;5014475;28;20584;-70
2022/04/05 11:53:25;;;;;;;4.82;3.63;;;;;;;17.43;nan;94467.59;5013969;28;20255;-70
2022/04/05 11:56:24;;;;;;;4.53;4.03;;;;;;;17.22;nan;94469.91;5018968;28;20657;-70
2022/04/05 11:58:53;;;;;;;5.53;4.72;;;;;;;17.28;nan;94464.38;4972179;28;20580;-71